Time;durP1;ratioP1;P1;durP2;ratioP2;P2;SDS_P1;SDS_P2;PMS_P1;PMS_P2;Temp;Humidity;BMP_temperature;BMP_pressure;BME280_temperature;BME280_humidity;BME280_pressure;Samples;Min_cycle;Max_cycle;Signal;HPM_P1;HPM_P2
2021/09/24 00:00:54;;;;;;;6.22;5.70;;;;;;;6.13;100.00;100453.56;1771256;80;21501;-52
2021/09/24 00:03:22;;;;;;;12.43;5.17;;;;;;;6.17;100.00;100456.56;1774948;80;20967;-53
2021/09/24 00:05:50;;;;;;;6.12;5.53;;;;;;;6.20;100.00;100450.16;1775046;80;21751;-54
2021/09/24 00:08:18;;;;;;;8.13;5.47;;;;;;;6.22;100.00;100448.45;1774881;80;21328;-54
2021/09/24 00:10:46;;;;;;;8.93;5.78;;;;;;;6.22;100.00;100443.30;1774970;80;20968;-52
2021/09/24 00:13:14;;;;;;;6.10;5.50;;;;;;;6.21;100.00;100435.16;1774934;80;20976;-55
2021/09/24 00:15:40;;;;;;;8.85;5.22;;;;;;;6.21;100.00;100442.00;1775171;80;21003;-51
2021/09/24 00:18:07;;;;;;;5.87;5.28;;;;;;;6.20;100.00;100437.72;1774958;80;21241;-53
2021/09/24 00:20:34;;;;;;;5.53;4.97;;;;;;;6.20;100.00;100432.17;1774912;80;20974;-54
2021/09/24 00:23:03;;;;;;;6.05;5.08;;;;;;;6.20;100.00;100437.72;1774914;80;20960;-55
2021/09/24 00:25:31;;;;;;;5.78;5.08;;;;;;;6.22;100.00;100432.15;1774887;80;20966;-52
2021/09/24 00:28:01;;;;;;;5.33;4.83;;;;;;;6.22;100.00;100429.16;1774879;80;20893;-51
2021/09/24 00:30:29;;;;;;;5.83;5.30;;;;;;;6.23;100.00;100424.45;1775075;80;20944;-54
2021/09/24 00:32:56;;;;;;;6.65;5.00;;;;;;;6.24;100.00;100421.44;1774810;80;21015;-54
2021/09/24 00:35:22;;;;;;;5.03;4.40;;;;;;;6.26;100.00;100420.59;1774899;80;20944;-52
2021/09/24 00:37:48;;;;;;;6.30;5.22;;;;;;;6.27;100.00;100421.42;1774809;80;20933;-52
2021/09/24 00:40:15;;;;;;;4.97;4.55;;;;;;;6.27;100.00;100420.14;1774776;80;20996;-51
2021/09/24 00:42:43;;;;;;;7.85;4.80;;;;;;;6.26;100.00;100412.88;1775016;80;21133;-54
2021/09/24 00:45:10;;;;;;;6.33;4.58;;;;;;;6.26;100.00;100416.73;1775002;80;20984;-52
2021/09/24 00:47:37;;;;;;;5.25;4.72;;;;;;;6.28;100.00;100412.44;1774918;80;20999;-51
2021/09/24 00:50:05;;;;;;;5.58;4.30;;;;;;;6.29;100.00;100414.16;1774727;80;20944;-54
2021/09/24 00:52:32;;;;;;;5.53;5.00;;;;;;;6.32;100.00;100413.30;1774894;80;20972;-53
2021/09/24 00:54:58;;;;;;;5.00;4.60;;;;;;;6.32;100.00;100418.00;1774866;80;21757;-52
2021/09/24 00:57:25;;;;;;;5.65;5.17;;;;;;;6.36;100.00;100412.85;1774750;80;21038;-51
2021/09/24 00:59:52;;;;;;;5.72;5.15;;;;;;;6.38;100.00;100404.70;1774596;80;20889;-54
2021/09/24 01:02:18;;;;;;;4.85;4.50;;;;;;;6.39;100.00;100398.28;1770637;80;20984;-54
2021/09/24 01:04:46;;;;;;;5.20;4.80;;;;;;;6.41;100.00;100402.12;1769333;80;21494;-52
2021/09/24 01:07:13;;;;;;;4.15;3.83;;;;;;;6.39;100.00;100398.70;1769342;81;21129;-52
2021/09/24 01:09:40;;;;;;;4.28;3.98;;;;;;;6.38;100.00;100396.58;1769446;80;20984;-52
2021/09/24 01:12:09;;;;;;;6.90;4.70;;;;;;;6.37;100.00;100396.15;1769430;80;20968;-54
2021/09/24 01:14:35;;;;;;;5.20;4.78;;;;;;;6.36;100.00;100393.56;1769419;80;20968;-54
2021/09/24 01:17:04;;;;;;;5.05;4.62;;;;;;;6.37;100.00;100400.00;1769539;80;20964;-52
2021/09/24 01:19:32;;;;;;;6.62;4.60;;;;;;;6.37;100.00;100392.70;1769238;81;20957;-52
2021/09/24 01:21:59;;;;;;;5.35;4.42;;;;;;;6.37;100.00;100384.99;1769285;80;21620;-54
2021/09/24 01:24:25;;;;;;;4.65;4.20;;;;;;;6.35;100.00;100377.72;1769446;81;21632;-51
2021/09/24 01:26:54;;;;;;;8.73;4.40;;;;;;;6.33;100.00;100373.44;1769372;81;21561;-51
2021/09/24 01:29:25;;;;;;;10.25;5.08;;;;;;;6.30;100.00;100374.73;1769455;80;20924;-51
2021/09/24 01:31:52;;;;;;;6.25;4.72;;;;;;;6.22;100.00;100364.03;1769514;80;21784;-53
2021/09/24 01:34:18;;;;;;;4.78;4.37;;;;;;;6.22;100.00;100364.03;1769413;80;20984;-54
2021/09/24 01:36:45;;;;;;;5.60;4.78;;;;;;;6.17;100.00;100360.17;1769354;81;20980;-52
2021/09/24 01:39:12;;;;;;;8.75;4.53;;;;;;;6.12;100.00;100364.05;1769399;80;20995;-54
2021/09/24 01:41:42;;;;;;;7.05;5.03;;;;;;;6.07;100.00;100361.05;1769402;80;20952;-52
2021/09/24 01:44:10;;;;;;;7.28;6.28;;;;;;;6.00;100.00;100360.17;1769356;81;21781;-55
2021/09/24 01:46:41;;;;;;;9.20;5.42;;;;;;;5.94;100.00;100364.03;1769379;80;21031;-54
2021/09/24 01:49:09;;;;;;;8.95;5.58;;;;;;;5.88;100.00;100358.47;1768829;80;20960;-55
2021/09/24 01:51:38;;;;;;;8.65;5.25;;;;;;;5.83;100.00;100362.75;1769373;81;20960;-53
2021/09/24 01:54:05;;;;;;;8.83;4.22;;;;;;;5.76;100.00;100351.62;1769404;80;21023;-52
2021/09/24 01:56:32;;;;;;;8.03;4.95;;;;;;;5.71;100.00;100347.78;1769413;81;21939;-55
2021/09/24 01:58:58;;;;;;;18.75;6.00;;;;;;;5.67;100.00;100340.07;1769406;81;20952;-54
2021/09/24 02:01:25;;;;;;;17.15;6.65;;;;;;;5.62;100.00;100331.07;1769304;80;21023;-52
2021/09/24 02:03:52;;;;;;;8.05;5.08;;;;;;;5.60;100.00;100334.07;1769299;81;21012;-51
2021/09/24 02:06:19;;;;;;;6.15;5.55;;;;;;;5.56;100.00;100334.52;1769453;81;21430;-54
2021/09/24 02:08:45;;;;;;;7.70;4.72;;;;;;;5.53;100.00;100326.78;1769219;80;21896;-55
2021/09/24 02:11:13;;;;;;;9.45;5.25;;;;;;;5.50;100.00;100323.38;1769216;80;20992;-53
2021/09/24 02:13:41;;;;;;;11.00;5.30;;;;;;;5.48;100.00;100319.95;1769416;80;20976;-54
2021/09/24 02:16:09;;;;;;;6.37;5.80;;;;;;;5.45;100.00;100315.25;1769185;80;20893;-50
2021/09/24 02:18:36;;;;;;;6.65;5.37;;;;;;;5.42;100.00;100307.52;1750094;81;21023;-54
2021/09/24 02:21:05;;;;;;;26.50;5.87;;;;;;;5.41;100.00;100305.81;1769364;80;21437;-52
2021/09/24 02:23:32;;;;;;;6.58;4.67;;;;;;;5.39;100.00;100302.83;1769211;80;20949;-54
2021/09/24 02:25:59;;;;;;;22.10;5.10;;;;;;;5.37;100.00;100293.84;1769465;80;21502;-52
2021/09/24 02:28:25;;;;;;;25.75;5.30;;;;;;;5.39;100.00;100290.84;1769446;81;21575;-53
2021/09/24 02:30:52;;;;;;;16.27;5.20;;;;;;;5.38;100.00;100285.28;1769361;81;20968;-51
2021/09/24 02:33:20;;;;;;;19.77;5.22;;;;;;;5.37;100.00;100283.56;1769375;80;20999;-53
2021/09/24 02:38:23;;;;;;;7.80;4.15;;;;;;;5.40;100.00;100278.88;1870385;76;22754;-53
2021/09/24 02:40:50;;;;;;;4.80;4.42;;;;;;;5.36;100.00;100280.57;1826613;77;20979;-53
2021/09/24 02:43:16;;;;;;;4.20;3.80;;;;;;;5.37;100.00;100271.17;1826665;78;21224;-53
2021/09/24 02:45:44;;;;;;;5.28;4.78;;;;;;;5.38;100.00;100272.44;1826593;78;21057;-52
2021/09/24 02:48:12;;;;;;;9.98;4.28;;;;;;;5.40;100.00;100269.45;1826652;78;20857;-53
2021/09/24 02:50:40;;;;;;;6.25;4.65;;;;;;;5.39;100.00;100264.33;1826613;78;20963;-52
2021/09/24 02:53:09;;;;;;;4.28;3.95;;;;;;;5.38;100.00;100259.61;1826654;78;20916;-52
2021/09/24 02:55:35;;;;;;;5.50;4.28;;;;;;;5.39;100.00;100259.19;1826678;78;21112;-55
2021/09/24 02:58:03;;;;;;;6.75;4.17;;;;;;;5.41;100.00;100261.33;1826551;78;20923;-53
2021/09/24 03:00:31;;;;;;;4.35;4.00;;;;;;;5.39;100.00;100252.33;1826648;77;20998;-52
2021/09/24 03:02:58;;;;;;;6.47;4.87;;;;;;;5.42;100.00;100257.45;1826527;78;21005;-53
2021/09/24 03:05:25;;;;;;;10.18;5.10;;;;;;;5.42;100.00;100260.03;1826680;78;20988;-55
2021/09/24 03:07:53;;;;;;;5.85;4.97;;;;;;;5.42;100.00;100256.63;1826654;78;20892;-53
2021/09/24 03:10:19;;;;;;;5.37;4.87;;;;;;;5.44;100.00;100263.89;1826543;78;20943;-53
2021/09/24 03:12:47;;;;;;;6.03;5.20;;;;;;;5.45;100.00;100268.17;1826555;78;20923;-54
2021/09/24 03:17:45;;;;;;;5.70;5.20;;;;;;;5.53;100.00;100272.86;1797718;79;22570;-51
2021/09/24 03:20:12;;;;;;;10.38;5.37;;;;;;;5.49;100.00;100267.75;1757529;80;20924;-51
2021/09/24 03:22:41;;;;;;;8.43;5.20;;;;;;;5.50;100.00;100265.61;1753582;81;20897;-53
2021/09/24 03:25:09;;;;;;;10.85;5.53;;;;;;;5.51;100.00;100266.03;1748975;82;21548;-51
2021/09/24 03:27:38;;;;;;;7.45;5.47;;;;;;;5.52;100.00;100262.17;1748981;82;20991;-51
2021/09/24 03:30:06;;;;;;;10.20;5.17;;;;;;;5.54;100.00;100257.05;1749034;82;20940;-54
2021/09/24 03:32:34;;;;;;;17.67;5.67;;;;;;;5.57;100.00;100258.32;1749050;82;20877;-51
2021/09/24 03:35:03;;;;;;;18.65;6.35;;;;;;;5.57;100.00;100259.19;1749055;82;20979;-54
2021/09/24 03:37:32;;;;;;;17.55;6.10;;;;;;;5.60;100.00;100256.62;1748870;81;21002;-52
2021/09/24 03:39:58;;;;;;;10.13;5.45;;;;;;;5.62;100.00;100255.31;1749078;82;20920;-52
2021/09/24 03:42:25;;;;;;;12.98;6.20;;;;;;;5.65;100.00;100248.88;1748968;80;20984;-54
2021/09/24 03:44:52;;;;;;;15.63;5.67;;;;;;;5.68;100.00;100248.03;1748981;82;21560;-55
2021/09/24 03:47:18;;;;;;;13.48;5.80;;;;;;;5.70;100.00;100251.05;1748982;82;22209;-55
2021/09/24 03:49:44;;;;;;;27.35;6.55;;;;;;;5.70;100.00;100242.47;1748889;81;20972;-52
2021/09/24 03:52:11;;;;;;;17.82;5.92;;;;;;;5.76;100.00;100245.02;1749213;82;21510;-54
2021/09/24 03:54:39;;;;;;;19.30;5.67;;;;;;;5.78;100.00;100243.74;1749067;80;21529;-53
2021/09/24 03:57:06;;;;;;;8.10;4.90;;;;;;;5.81;100.00;100243.73;1749207;82;20956;-55
2021/09/24 03:59:32;;;;;;;11.12;5.25;;;;;;;5.83;100.00;100236.87;1719356;82;21021;-53
2021/09/24 04:01:59;;;;;;;11.38;5.37;;;;;;;5.88;100.00;100237.71;1748732;82;21015;-54
2021/09/24 04:04:26;;;;;;;7.22;5.17;;;;;;;5.90;100.00;100227.00;1749043;82;20985;-52
2021/09/24 04:06:52;;;;;;;5.78;5.28;;;;;;;5.92;100.00;100234.27;1748961;81;21533;-55
2021/09/24 04:09:18;;;;;;;5.47;4.47;;;;;;;5.96;100.00;100228.70;1749042;82;20964;-54
2021/09/24 04:11:45;;;;;;;7.92;4.58;;;;;;;6.00;100.00;100224.84;1749060;82;21123;-53
2021/09/24 04:14:13;;;;;;;4.47;3.98;;;;;;;6.03;100.00;100224.86;1748874;81;20941;-55
2021/09/24 04:16:40;;;;;;;7.17;4.25;;;;;;;6.08;100.00;100220.13;1743190;81;20976;-53
2021/09/24 04:19:08;;;;;;;4.70;4.22;;;;;;;6.11;100.00;100217.55;1735802;82;21514;-54
2021/09/24 04:21:34;;;;;;;4.72;4.33;;;;;;;6.15;100.00;100220.52;1735686;82;20976;-51
2021/09/24 04:24:05;;;;;;;5.22;4.55;;;;;;;6.17;100.00;100216.23;1735707;82;21007;-54
2021/09/24 04:26:33;;;;;;;4.67;4.37;;;;;;;6.18;100.00;100214.08;1735762;82;21000;-55
2021/09/24 04:29:01;;;;;;;8.83;4.28;;;;;;;6.20;100.00;100213.67;1735190;82;20929;-53
2021/09/24 04:31:29;;;;;;;4.45;4.08;;;;;;;6.20;100.00;100212.80;1735046;81;20924;-51
2021/09/24 04:33:55;;;;;;;4.67;4.17;;;;;;;6.26;100.00;100224.34;1735312;82;20921;-51
2021/09/24 04:36:23;;;;;;;5.55;4.30;;;;;;;6.31;100.00;100229.02;1735192;82;20981;-54
2021/09/24 04:38:50;;;;;;;4.00;3.70;;;;;;;6.38;100.00;100223.43;1735148;82;21031;-55
2021/09/24 04:41:17;;;;;;;4.05;3.75;;;;;;;6.45;100.00;100223.84;1735177;82;20984;-52
2021/09/24 04:43:43;;;;;;;5.40;3.75;;;;;;;6.57;100.00;100219.07;1714176;82;20964;-55
2021/09/24 04:46:11;;;;;;;3.40;3.10;;;;;;;6.67;100.00;100213.41;1735303;82;21455;-52
2021/09/24 04:48:37;;;;;;;4.17;3.80;;;;;;;6.75;100.00;100210.38;1735205;82;21110;-54
2021/09/24 04:51:03;;;;;;;3.47;3.27;;;;;;;6.82;100.00;100201.75;1735363;82;20992;-54
2021/09/24 04:53:30;;;;;;;3.17;2.98;;;;;;;6.90;100.00;100200.41;1735273;82;20984;-51
2021/09/24 04:55:57;;;;;;;3.00;2.80;;;;;;;6.97;100.00;100189.65;1735117;82;21502;-54
2021/09/24 04:58:24;;;;;;;4.85;2.60;;;;;;;7.04;100.00;100190.84;1735295;81;20972;-53
2021/09/24 05:00:50;;;;;;;3.27;3.08;;;;;;;7.13;100.00;100192.95;1735256;82;21883;-52
2021/09/24 05:03:17;;;;;;;3.42;3.10;;;;;;;7.23;100.00;100195.02;1735115;81;20877;-52
2021/09/24 05:05:43;;;;;;;2.77;2.58;;;;;;;7.27;100.00;100183.81;1735113;82;21542;-54
2021/09/24 05:08:11;;;;;;;2.65;2.50;;;;;;;7.32;100.00;100180.76;1735265;82;21447;-54
2021/09/24 05:10:38;;;;;;;5.05;2.58;;;;;;;7.38;100.00;100169.10;1735474;82;21562;-55
2021/09/24 05:13:06;;;;;;;2.42;2.33;;;;;;;7.43;100.00;100171.19;1735246;82;20997;-53
2021/09/24 05:15:34;;;;;;;4.12;2.77;;;;;;;7.47;99.45;100163.88;1735187;82;20976;-52
2021/09/24 05:18:02;;;;;;;2.85;2.70;;;;;;;7.52;99.06;100166.84;1735110;82;21499;-52
2021/09/24 05:20:30;;;;;;;2.75;2.55;;;;;;;7.58;99.17;100153.47;1714586;82;21478;-53
2021/09/24 05:22:58;;;;;;;2.87;2.67;;;;;;;7.64;98.14;100146.53;1735187;81;21025;-54
2021/09/24 05:25:25;;;;;;;2.47;2.27;;;;;;;7.69;97.45;100144.30;1735188;82;21128;-52
2021/09/24 05:27:52;;;;;;;2.70;2.50;;;;;;;7.79;97.42;100150.66;1735043;82;20988;-53
2021/09/24 05:30:19;;;;;;;3.60;2.35;;;;;;;7.87;96.27;100146.25;1735255;82;21016;-51
2021/09/24 05:32:47;;;;;;;4.30;2.52;;;;;;;7.97;96.01;100143.99;1735261;82;20999;-54
2021/09/24 05:35:15;;;;;;;2.37;2.20;;;;;;;8.06;95.14;100135.27;1735334;82;21028;-52
2021/09/24 05:37:43;;;;;;;2.65;2.27;;;;;;;8.13;94.72;100142.06;1735073;81;21098;-52
2021/09/24 05:40:11;;;;;;;2.90;2.70;;;;;;;8.19;93.50;100133.38;1735118;82;21015;-53
2021/09/24 05:42:38;;;;;;;4.08;2.42;;;;;;;8.25;92.68;100129.45;1714587;82;20949;-52
2021/09/24 05:45:09;;;;;;;2.80;2.60;;;;;;;8.33;92.80;100126.73;1714288;82;20988;-55
2021/09/24 05:47:38;;;;;;;4.72;2.87;;;;;;;8.40;91.46;100130.08;1735393;82;20961;-52
2021/09/24 05:50:14;;;;;;;3.25;2.42;;;;;;;8.47;91.01;100129.14;1735282;81;21978;-51
2021/09/24 05:52:44;;;;;;;2.70;2.60;;;;;;;8.53;89.86;100118.75;1735344;81;20964;-54
2021/09/24 05:55:11;;;;;;;3.98;2.83;;;;;;;8.63;90.12;100121.59;1735120;81;20993;-54
2021/09/24 05:57:38;;;;;;;4.30;3.17;;;;;;;8.69;89.36;100114.20;1735046;82;20972;-54
2021/09/24 06:00:08;;;;;;;3.55;3.10;;;;;;;8.76;89.24;100111.09;1735252;82;21501;-55
2021/09/24 06:02:39;;;;;;;2.90;2.70;;;;;;;8.85;88.25;100101.89;1735072;82;21789;-54
2021/09/24 06:05:06;;;;;;;4.25;2.83;;;;;;;8.94;88.08;100098.73;1735173;82;20949;-52
2021/09/24 06:07:35;;;;;;;6.15;3.00;;;;;;;9.02;87.74;100093.84;1735093;81;20973;-55
2021/09/24 06:10:02;;;;;;;3.65;3.12;;;;;;;9.12;87.96;100092.41;1735119;81;21574;-52
2021/09/24 06:12:29;;;;;;;4.37;3.47;;;;;;;9.22;86.95;100095.65;1734896;81;20937;-52
2021/09/24 06:15:00;;;;;;;5.00;3.58;;;;;;;9.29;86.42;100084.34;1735192;82;21130;-54
2021/09/24 06:17:28;;;;;;;3.33;2.85;;;;;;;9.34;85.78;100081.23;1738896;81;20975;-52
2021/09/24 06:19:57;;;;;;;2.77;2.55;;;;;;;9.39;84.62;100088.90;1743267;82;20976;-55
2021/09/24 06:22:25;;;;;;;11.25;3.12;;;;;;;9.43;84.37;100077.16;1743272;82;20991;-54
2021/09/24 06:24:51;;;;;;;7.00;3.10;;;;;;;9.51;84.84;100064.09;1743364;82;20956;-54
2021/09/24 06:27:18;;;;;;;5.47;3.50;;;;;;;9.60;84.41;100079.86;1743503;81;21841;-53
2021/09/24 06:29:50;;;;;;;9.53;4.03;;;;;;;9.67;84.21;100070.25;1743160;82;21447;-52
2021/09/24 06:32:17;;;;;;;6.08;4.03;;;;;;;9.71;83.27;100071.43;1743324;82;20985;-55
2021/09/24 06:34:45;;;;;;;5.78;3.15;;;;;;;9.74;83.75;100074.41;1743408;81;20940;-53
2021/09/24 06:37:11;;;;;;;6.50;3.45;;;;;;;9.77;83.51;100068.73;1743282;82;20972;-51
2021/09/24 06:39:38;;;;;;;5.50;3.10;;;;;;;9.78;83.42;100070.44;1743379;82;21139;-52
2021/09/24 06:42:05;;;;;;;4.95;3.70;;;;;;;9.77;83.55;100069.16;1743189;82;20969;-55
2021/09/24 06:44:32;;;;;;;4.62;3.85;;;;;;;9.71;83.68;100070.59;1743280;82;20923;-51
2021/09/24 06:46:58;;;;;;;4.75;3.42;;;;;;;9.63;82.84;100074.63;1743108;82;20999;-53
2021/09/24 06:49:25;;;;;;;4.05;3.45;;;;;;;9.55;83.14;100074.77;1743134;81;20987;-53
2021/09/24 06:51:53;;;;;;;4.25;3.85;;;;;;;9.46;82.47;100077.09;1743273;81;21086;-54
2021/09/24 06:54:19;;;;;;;7.75;3.33;;;;;;;9.38;83.46;100069.95;1742877;82;21043;-54
2021/09/24 06:56:47;;;;;;;6.62;3.52;;;;;;;9.27;82.45;100057.70;1743031;82;20937;-53
2021/09/24 06:59:14;;;;;;;6.50;3.85;;;;;;;9.22;83.21;100056.91;1743206;82;21031;-54
2021/09/24 07:01:45;;;;;;;4.00;3.65;;;;;;;9.15;83.66;100050.58;1743200;81;20948;-54
2021/09/24 07:04:08;;;;;;;3.85;3.55;;;;;;;9.10;83.97;100047.70;1741787;82;21161;-53
2021/09/24 07:06:36;;;;;;;11.68;4.42;;;;;;;9.07;84.01;100042.14;1743217;82;20972;-54
2021/09/24 07:09:04;;;;;;;15.00;4.70;;;;;;;9.06;84.51;100043.02;1743259;81;20995;-53
2021/09/24 07:11:33;;;;;;;9.53;4.03;;;;;;;9.06;85.09;100033.98;1743188;82;20969;-53
2021/09/24 07:14:01;;;;;;;11.95;4.12;;;;;;;9.05;85.19;100030.98;1743280;82;21003;-55
2021/09/24 07:16:29;;;;;;;10.80;4.30;;;;;;;9.02;85.38;100029.77;1743200;82;20968;-54
2021/09/24 07:18:56;;;;;;;13.22;4.17;;;;;;;9.00;85.29;100020.73;1713681;82;21490;-54
2021/09/24 07:21:24;;;;;;;9.93;3.62;;;;;;;9.01;85.52;100021.61;1743211;82;20916;-54
2021/09/24 07:23:51;;;;;;;6.45;3.87;;;;;;;9.01;85.72;100016.44;1743271;82;21019;-53
2021/09/24 07:26:17;;;;;;;4.00;3.70;;;;;;;9.03;85.95;100015.97;1713754;82;20937;-52
2021/09/24 07:28:44;;;;;;;8.15;3.92;;;;;;;9.02;85.08;100018.98;1714194;82;21135;-53
2021/09/24 07:31:12;;;;;;;9.78;3.70;;;;;;;9.05;85.02;100021.95;1743172;82;20976;-54
2021/09/24 07:33:38;;;;;;;8.60;3.90;;;;;;;9.09;84.94;100020.14;1743390;81;20948;-53
2021/09/24 07:36:07;;;;;;;4.55;3.90;;;;;;;9.11;84.04;100008.08;1743092;82;20940;-53
2021/09/24 07:38:33;;;;;;;5.95;3.83;;;;;;;9.13;84.43;100012.77;1743345;82;21074;-54
2021/09/24 07:41:01;;;;;;;4.92;3.45;;;;;;;9.15;84.12;100005.39;1743190;82;21012;-53
2021/09/24 07:43:29;;;;;;;8.83;3.67;;;;;;;9.17;84.42;100008.79;1743113;81;20956;-51
2021/09/24 07:45:58;;;;;;;13.93;3.55;;;;;;;9.18;84.74;99997.58;1743236;81;21055;-54
2021/09/24 07:48:25;;;;;;;6.05;3.70;;;;;;;9.17;85.05;99995.88;1713746;82;20976;-53
2021/09/24 07:50:52;;;;;;;4.65;3.70;;;;;;;9.14;84.88;99990.77;1743473;82;20992;-54
2021/09/24 07:53:20;;;;;;;5.47;3.22;;;;;;;9.13;84.94;99987.78;1743202;82;21190;-54
2021/09/24 07:55:46;;;;;;;5.50;3.60;;;;;;;9.11;84.57;99986.13;1743241;82;21000;-54
2021/09/24 07:58:13;;;;;;;3.98;3.67;;;;;;;9.09;84.74;99993.03;1743173;82;20948;-52
2021/09/24 08:00:39;;;;;;;4.12;3.42;;;;;;;9.06;85.38;99979.30;1743229;82;20909;-54
2021/09/24 08:03:06;;;;;;;6.55;4.08;;;;;;;9.05;86.08;99980.64;1713935;81;20968;-54
2021/09/24 08:05:32;;;;;;;5.42;4.03;;;;;;;9.04;86.53;99969.45;1743282;81;21090;-53
2021/09/24 08:07:59;;;;;;;7.15;3.80;;;;;;;9.05;86.28;99966.44;1743429;80;20917;-52
2021/09/24 08:10:26;;;;;;;5.95;3.60;;;;;;;9.11;87.10;99974.52;1743428;82;20987;-52
2021/09/24 08:12:53;;;;;;;7.42;3.98;;;;;;;9.13;87.03;99972.29;1743538;82;21024;-52
2021/09/24 08:15:20;;;;;;;7.25;3.75;;;;;;;9.15;86.74;99965.36;1743413;82;21000;-53
2021/09/24 08:17:46;;;;;;;6.22;3.27;;;;;;;9.23;87.22;99970.84;1714612;82;21046;-57
2021/09/24 08:20:15;;;;;;;3.85;3.42;;;;;;;9.31;87.56;99959.89;1745366;82;20972;-52
2021/09/24 08:22:43;;;;;;;4.30;3.90;;;;;;;9.38;87.13;99952.41;1745340;81;21007;-52
2021/09/24 08:25:12;;;;;;;5.05;3.65;;;;;;;9.47;86.63;99944.91;1745425;82;20976;-55
2021/09/24 08:27:40;;;;;;;4.95;3.60;;;;;;;9.48;86.46;99943.59;1745566;82;21509;-53
2021/09/24 08:30:10;;;;;;;12.00;3.90;;;;;;;9.51;86.55;99920.70;1745370;80;21210;-54
2021/09/24 08:32:37;;;;;;;8.15;3.42;;;;;;;9.53;87.68;99938.30;1745412;82;20956;-51
2021/09/24 08:35:08;;;;;;;9.13;4.15;;;;;;;9.52;87.58;99937.06;1745607;82;21003;-50
2021/09/24 08:37:36;;;;;;;4.97;3.37;;;;;;;9.47;88.23;99942.33;1745292;81;21042;-54
2021/09/24 08:40:04;;;;;;;5.30;3.40;;;;;;;9.40;88.70;99931.73;1745542;82;20964;-52
2021/09/24 08:42:30;;;;;;;4.33;3.92;;;;;;;9.39;88.28;99923.57;1745445;82;21753;-53
2021/09/24 08:44:57;;;;;;;3.35;3.05;;;;;;;9.38;88.53;99916.70;1715967;82;21474;-53
2021/09/24 08:47:24;;;;;;;4.05;3.62;;;;;;;9.37;88.50;99913.72;1745428;82;20964;-54
2021/09/24 08:49:51;;;;;;;3.98;3.67;;;;;;;9.37;88.78;99915.01;1745438;82;20889;-52
2021/09/24 08:52:19;;;;;;;6.20;3.83;;;;;;;9.37;88.51;99907.26;1745561;82;21013;-54
2021/09/24 08:54:46;;;;;;;3.62;3.33;;;;;;;9.36;88.42;99905.56;1745570;82;21131;-54
2021/09/24 08:57:15;;;;;;;4.37;3.33;;;;;;;9.34;89.35;99908.16;1745364;82;20924;-52
2021/09/24 08:59:43;;;;;;;3.90;3.60;;;;;;;9.31;89.22;99900.48;1745496;82;21015;-53
2021/09/24 09:02:09;;;;;;;5.17;3.55;;;;;;;9.27;89.55;99908.73;1745404;81;20944;-54
2021/09/24 09:04:39;;;;;;;4.47;3.80;;;;;;;9.21;89.25;99895.95;1745425;81;20973;-55
2021/09/24 09:07:08;;;;;;;3.75;3.42;;;;;;;9.15;89.89;99896.94;1745409;81;21062;-52
2021/09/24 09:09:37;;;;;;;3.87;3.58;;;;;;;9.10;90.18;99884.56;1745452;82;20968;-52
2021/09/24 09:12:18;;;;;;;3.67;3.35;;;;;;;9.07;91.15;99887.22;1745401;82;21478;-52
2021/09/24 09:15:09;;;;;;;4.50;3.60;;;;;;;9.06;91.92;99879.06;1745499;82;20999;-55
2021/09/24 09:17:39;;;;;;;6.60;3.98;;;;;;;9.02;92.05;99883.89;1744023;81;21496;-54
2021/09/24 09:20:21;;;;;;;4.08;3.70;;;;;;;9.01;92.34;99870.58;1735339;82;21646;-52
2021/09/24 09:23:02;;;;;;;4.42;4.03;;;;;;;8.98;92.19;99871.48;1735087;81;21011;-55
2021/09/24 09:25:39;;;;;;;4.17;3.77;;;;;;;8.98;92.83;99880.97;1735128;81;21000;-54
2021/09/24 09:28:14;;;;;;;3.92;3.55;;;;;;;8.96;93.30;99871.95;1714333;82;20925;-56
2021/09/24 09:30:43;;;;;;;4.50;3.58;;;;;;;8.93;94.05;99856.96;1735312;82;21553;-52
2021/09/24 09:33:16;;;;;;;5.70;4.10;;;;;;;8.90;94.51;99859.19;1714094;82;21067;-54
2021/09/24 09:35:52;;;;;;;4.87;4.08;;;;;;;8.90;95.21;99860.48;1735123;82;20897;-52
2021/09/24 09:38:33;;;;;;;;;;;;;;;8.90;95.41;99860.48;1737530;82;20925;-52
2021/09/24 09:41:10;;;;;;;4.90;4.22;;;;;;;8.89;96.25;99844.12;1735240;81;20463;-54
2021/09/24 09:43:44;;;;;;;3.72;3.42;;;;;;;8.88;96.31;99852.75;1734622;82;20990;-53
2021/09/24 09:46:14;;;;;;;4.67;4.10;;;;;;;8.87;96.37;99839.44;1735153;82;21118;-53
2021/09/24 09:48:42;;;;;;;6.00;3.75;;;;;;;8.87;96.90;99839.44;1735087;82;21490;-53
2021/09/24 09:51:09;;;;;;;4.35;4.00;;;;;;;8.86;97.40;99840.32;1735295;82;21522;-54
2021/09/24 09:53:37;;;;;;;4.47;4.15;;;;;;;8.88;97.82;99839.02;1714604;82;20969;-51
2021/09/24 09:56:05;;;;;;;3.52;3.33;;;;;;;8.90;98.05;99838.53;1714251;82;20929;-53
2021/09/24 09:58:36;;;;;;;4.12;3.80;;;;;;;8.87;97.50;99825.23;1735043;82;21173;-52
2021/09/24 10:01:10;;;;;;;4.40;4.00;;;;;;;8.90;98.26;99835.50;1734988;82;20910;-52
2021/09/24 10:03:49;;;;;;;4.30;3.90;;;;;;;8.95;98.80;99838.41;1735205;82;21511;-54
2021/09/24 10:06:29;;;;;;;4.67;4.28;;;;;;;8.99;98.92;99836.20;1735146;82;20886;-52
2021/09/24 10:09:01;;;;;;;4.45;3.80;;;;;;;9.03;99.26;99824.46;1735079;82;20953;-52
2021/09/24 10:11:37;;;;;;;4.20;3.90;;;;;;;9.04;98.76;99827.45;1735154;82;21754;-55
2021/09/24 10:14:09;;;;;;;7.45;3.83;;;;;;;9.08;98.83;99824.80;1735073;82;21044;-53
2021/09/24 10:16:39;;;;;;;6.78;4.10;;;;;;;9.06;98.89;99822.27;1735105;82;21518;-51
2021/09/24 10:19:06;;;;;;;4.30;3.90;;;;;;;9.05;99.01;99814.11;1743271;82;21537;-52
2021/09/24 10:21:34;;;;;;;5.53;3.90;;;;;;;9.03;99.18;99808.14;1749005;82;20987;-51
2021/09/24 10:24:01;;;;;;;4.33;4.03;;;;;;;9.01;99.34;99807.33;1721240;82;21259;-56
2021/09/24 10:26:44;;;;;;;4.15;3.80;;;;;;;9.01;99.43;99807.33;1749005;82;20933;-51
2021/09/24 10:29:23;;;;;;;4.05;3.45;;;;;;;8.98;100.00;99805.65;1721830;82;20981;-52
2021/09/24 10:31:50;;;;;;;3.50;3.20;;;;;;;8.97;99.83;99798.79;1748672;80;20933;-50
2021/09/24 10:34:19;;;;;;;5.17;3.52;;;;;;;8.95;100.00;99806.14;1749089;82;20984;-53
2021/09/24 10:36:55;;;;;;;4.45;2.92;;;;;;;8.91;100.00;99792.02;1721350;82;22258;-51
2021/09/24 10:39:34;;;;;;;7.40;3.58;;;;;;;8.92;100.00;99785.14;1748999;82;20928;-55
2021/09/24 10:42:25;;;;;;;4.22;3.50;;;;;;;8.90;100.00;99780.45;1749247;82;20928;-52
2021/09/24 10:45:21;;;;;;;4.90;3.90;;;;;;;8.89;100.00;99764.11;1749144;82;20991;-52
2021/09/24 10:48:17;;;;;;;4.72;3.50;;;;;;;8.90;100.00;99756.77;1749314;81;21580;-52
2021/09/24 10:50:57;;;;;;;5.17;3.07;;;;;;;8.89;100.00;99765.86;1749427;82;21134;-53
2021/09/24 10:53:30;;;;;;;5.25;3.42;;;;;;;8.90;100.00;99768.84;1739900;82;22157;-55
2021/09/24 10:56:06;;;;;;;3.47;3.10;;;;;;;8.89;100.00;99757.66;1720686;82;20944;-54
2021/09/24 10:58:39;;;;;;;3.20;2.97;;;;;;;8.87;100.00;99760.72;1749356;82;20959;-53
2021/09/24 11:01:14;;;;;;;6.03;4.55;;;;;;;8.87;100.00;99750.84;1749105;80;21023;-51
2021/09/24 11:03:57;;;;;;;6.33;4.37;;;;;;;8.84;100.00;99747.88;1749068;81;21134;-54
2021/09/24 11:06:37;;;;;;;4.60;3.90;;;;;;;8.85;100.00;99746.16;1749068;82;20991;-51
2021/09/24 11:09:10;;;;;;;6.22;3.22;;;;;;;8.85;100.00;99747.45;1749159;82;20964;-51
2021/09/24 11:11:41;;;;;;;3.27;3.08;;;;;;;8.84;100.00;99747.02;1749022;82;20932;-52
2021/09/24 11:14:26;;;;;;;2.77;2.40;;;;;;;8.84;100.00;99740.14;1749132;81;21003;-55
2021/09/24 11:16:55;;;;;;;2.58;2.37;;;;;;;8.83;100.00;99724.25;1749260;82;20927;-53
2021/09/24 11:19:46;;;;;;;3.10;2.35;;;;;;;8.82;100.00;99719.97;1726119;81;20991;-55
2021/09/24 11:22:19;;;;;;;6.28;3.10;;;;;;;8.82;100.00;99715.23;1756838;81;20920;-55
2021/09/24 11:25:00;;;;;;;3.85;3.22;;;;;;;8.80;100.00;99709.27;1756885;81;20968;-53
2021/09/24 11:27:34;;;;;;;3.50;3.20;;;;;;;8.77;100.00;99695.55;1756770;81;21580;-52
2021/09/24 11:30:07;;;;;;;5.03;2.42;;;;;;;8.77;100.00;99693.43;1756669;81;21129;-55
2021/09/24 11:32:40;;;;;;;7.08;2.80;;;;;;;8.75;100.00;99696.49;1756710;81;21232;-52
2021/09/24 11:35:10;;;;;;;3.12;2.92;;;;;;;8.75;100.00;99705.52;1756877;81;20912;-52
2021/09/24 11:37:39;;;;;;;7.65;3.15;;;;;;;8.73;100.00;99689.23;1756766;80;20964;-54
2021/09/24 11:40:13;;;;;;;3.42;3.05;;;;;;;8.73;100.00;99691.35;1757045;81;21026;-51
2021/09/24 11:42:42;;;;;;;5.22;2.92;;;;;;;8.74;100.00;99689.63;1757117;81;21025;-55
2021/09/24 11:45:22;;;;;;;4.17;2.70;;;;;;;8.76;100.00;99706.76;1728901;81;21525;-54